• Join FlightAware (Why Join?)
  • Login
  • US Flag 
10:12AM EDT


 

Airport Tracker/Info


-or-


 

Live Flight TrackerFlight Track Log ✈ AAL297 ✈ 25-Apr-2013 ✈ KDFW - KLAX

Flight Track Log - Related Links

Times and Time Zones

All times are in EDT time to prevent confusion due to time zone crossing. See the AAL297 flight status page for this flight to view local times or setup timezone preferences in your user account.

Time Position Orientation Groundspeed Altitude Reporting Facility
EDT Latitude Longitude Course Direction KTS MPH feet Rate Location/Type
02:43PM 32.8730 -97.0480 180° South 184 212 2,100  Level FlightAware
02:43PM 32.8580 -97.0480 180° South 205 236 2,700 2,520 Climbing FlightAware
02:44PM 32.8270 -97.0480 180° South 235 270 4,000 2,580 Climbing FlightAware
02:44PM 32.7990 -97.0490 182° South 247 284 5,100 2,520 Climbing FlightAware
02:44PM 32.7830 -97.0560 200° South 261 300 5,700 2,760 Climbing FlightAware
02:45PM 32.7700 -97.0740 229° Southwest 270 311 6,500 3,000 Climbing FlightAware
02:45PM 32.7660 -97.0920 255° West 271 312 7,200 3,420 Climbing FlightAware
02:45PM 32.7690 -97.1330 275° West 269 310 8,800 2,580 Climbing FlightAware
02:46PM 32.7750 -97.1770 279° West 276 318 9,600 900 Climbing FlightAware
02:46PM 32.7830 -97.2170 283° West 287 330 9,700 60 Climbing FlightAware
02:47PM 32.7910 -97.2600 282° West 322 371 9,700 120 Level FlightAware
02:47PM 32.8000 -97.3060 283° West 335 386 9,800 1,440 Climbing FlightAware
02:48PM 32.8150 -97.3870 282° West 340 391 11,400 2,820 Climbing FlightAware
02:49PM 32.8310 -97.4710 283° West 340 391 14,100 3,300 Climbing FlightAware
02:49PM 32.8450 -97.5470 282° West 344 396 16,400 3,120 Climbing FlightAware
02:50PM 32.8570 -97.6110 283° West 353 406 18,300 2,640 Climbing FlightAware
02:51PM 32.8720 -97.6930 282° West 371 427 19,700 2,580 Climbing FlightAware
02:51PM 32.8790 -97.7930 275° West 368 423 22,200 2,880 Climbing FlightAware
02:52PM 32.8790 -97.8670 270° West 372 428 23,800 1,380 Climbing FlightAware
02:53PM 32.8790 -97.9860 270° West 387 445 24,400 1,860 Climbing FlightAware
02:53PM 32.8780 -98.0500 269° West 399 459 26,500 2,460 Climbing FlightAware
02:54PM 32.8920 -98.1700 278° West 396 456 27,900 840 Climbing FlightAware
02:55PM 32.9030 -98.2430 280° West 396 456 27,900 2,280 Level FlightAware
02:56PM 32.9400 -98.3560 291° West 414 476 31,200 3,780 Climbing FlightAware
02:56PM 32.9620 -98.4470 286° West 394 453 33,300 2,700 Climbing FlightAware
02:57PM 32.9820 -98.5320 286° West 379 436 35,100 2,160 Climbing FlightAware
02:58PM 33.0020 -98.6160 286° West 374 430 36,400 1,860 Climbing FlightAware
02:59PM 33.0210 -98.6930 286° West 364 419 37,600 1,080 Climbing FlightAware
02:59PM 33.0420 -98.7830 286° West 358 412 38,000 240 Climbing FlightAware
03:00PM 33.0600 -98.8560 286° West 356 410 38,000  Level FlightAware
03:01PM 33.0840 -98.9620 285° West 359 413 38,000  Level FlightAware
03:02PM 33.1040 -99.0470 286° West 363 418 38,000  Level FlightAware
03:02PM 33.1210 -99.1190 286° West 366 421 38,000  Level FlightAware
03:03PM 33.1430 -99.2130 286° West 368 423 38,000  Level FlightAware
03:04PM 33.1570 -99.2740 285° West 368 423 38,000  Level FlightAware
03:04PM 33.1770 -99.3620 285° West 368 423 38,000  Level FlightAware
03:05PM 33.1940 -99.4330 286° West 368 423 38,000  Level FlightAware
03:06PM 33.2110 -99.5110 285° West 368 423 38,000  Level FlightAware
03:07PM 33.2300 -99.5950 285° West 368 423 38,000  Level FlightAware
03:07PM 33.2450 -99.6620 285° West 368 423 38,000  Level FlightAware
03:08PM 33.2600 -99.7290 285° West 368 423 38,000  Level FlightAware
03:09PM 33.2750 -99.7960 285° West 368 423 38,000  Level FlightAware
03:09PM 33.2900 -99.8620 285° West 368 423 38,000  Level FlightAware
03:10PM 33.3050 -99.9290 285° West 368 423 38,000  Level FlightAware
03:11PM 33.3400 -100.0900 285° West 365 420 38,000  Level FlightAware
03:11PM 33.3540 -100.1570 284° West 365 420 38,000  Level FlightAware
03:12PM 33.3720 -100.2400 285° West 365 420 38,000  Level FlightAware
03:13PM 33.3860 -100.3070 284° West 365 420 38,000  Level FlightAware
03:13PM 33.3990 -100.3730 283° West 365 420 38,000  Level FlightAware
03:14PM 33.4130 -100.4400 284° West 365 420 38,000  Level FlightAware
03:15PM 33.4270 -100.5070 284° West 365 420 38,000  Level FlightAware
03:16PM 33.4440 -100.5900 284° West 365 420 38,000  Level FlightAware
03:16PM 33.4580 -100.6570 284° West 365 420 38,000  Level FlightAware
03:17PM 33.4720 -100.7240 284° West 365 420 38,000  Level FlightAware
03:18PM 33.4860 -100.7910 284° West 365 420 38,000  Level FlightAware
03:18PM 33.5000 -100.8570 284° West 365 420 38,000  Level FlightAware
03:19PM 33.5170 -100.9410 284° West 365 420 38,000  Level FlightAware
03:20PM 33.5310 -101.0080 284° West 365 420 38,000 1,080 Level FlightAware
03:21PM 33.5736 -101.2653 284° West 360 414 40,000 900 Climbing Fort Worth Center
03:22PM 33.5914 -101.3656 282° West 355 409 40,000  Level Fort Worth Center
03:23PM 33.6186 -101.4892 285° West 355 409 40,000  Level Fort Worth Center
03:24PM 33.6381 -101.5922 283° West 361 415 40,000  Level Fort Worth Center
03:25PM 33.6672 -101.7236 285° West 359 413 40,000  Level Fort Worth Center
03:26PM 33.6883 -101.8294 284° West 353 406 40,000  Level Fort Worth Center
03:27PM 33.7117 -101.9403 284° West 348 400 40,000  Level Fort Worth Center
03:28PM 33.7322 -102.0614 282° West 360 414 40,000  Level Fort Worth Center
03:29PM 33.7514 -102.1622 283° West 354 407 40,000  Level Fort Worth Center
03:30PM 33.7739 -102.2858 282° West 349 402 40,000  Level Fort Worth Center
03:31PM 33.7947 -102.3869 284° West 344 396 40,000  Level Fort Worth Center
03:32PM 33.8192 -102.5058 284° West 344 396 40,000  Level Fort Worth Center
03:33PM 33.8378 -102.6119 282° West 350 403 40,000  Level Fort Worth Center
03:34PM 33.8597 -102.7300 283° West 350 403 40,000  Level Albuquerque Center
03:35PM 33.8853 -102.8650 283° West 348 400 40,000  Level Albuquerque Center
03:36PM 33.9056 -102.9792 282° West 349 402 40,000  Level Albuquerque Center
03:37PM 33.9275 -103.0944 283° West 352 405 40,000  Level Albuquerque Center
03:38PM 33.9486 -103.2086 283° West 352 405 40,000  Level Albuquerque Center
03:39PM 33.9700 -103.3242 283° West 354 407 40,000  Level Albuquerque Center
03:40PM 33.9906 -103.4431 282° West 359 413 40,000  Level Albuquerque Center
03:41PM 34.0128 -103.5842 281° West 359 413 40,000  Level Albuquerque Center
03:42PM 34.0350 -103.7025 283° West 357 411 40,000  Level Albuquerque Center
03:43PM 34.0547 -103.8194 282° West 354 407 40,000  Level Albuquerque Center
03:44PM 34.0767 -103.9353 283° West 352 405 40,000  Level Albuquerque Center
03:46PM 34.0958 -104.0531 281° West 353 406 40,000  Level Albuquerque Center
03:47PM 34.1161 -104.1700 282° West 353 406 40,000  Level Albuquerque Center
03:48PM 34.1375 -104.2878 282° West 354 407 40,000  Level Albuquerque Center
03:49PM 34.1597 -104.4261 281° West 355 409 40,000  Level Albuquerque Center
03:50PM 34.1803 -104.5436 282° West 355 409 40,000  Level Albuquerque Center
03:51PM 34.2017 -104.6633 282° West 359 413 40,000  Level Albuquerque Center
03:52PM 34.2211 -104.7842 281° West 360 414 40,000  Level Albuquerque Center
03:57PM 34.3360 -105.4790 281° West 368 423 40,000  Level FlightAware
03:58PM 34.3480 -105.5580 280° West 368 423 40,000  Level FlightAware
03:59PM 34.3650 -105.6640 281° West 370 426 40,000  Level FlightAware
04:00PM 34.3750 -105.7330 280° West 370 426 40,000  Level FlightAware
04:00PM 34.3880 -105.8200 280° West 370 426 40,000  Level FlightAware
04:01PM 34.4160 -105.9320 287° West 378 435 40,000  Level FlightAware
04:02PM 34.4280 -105.9980 282° West 378 435 40,000  Level FlightAware
04:03PM 34.4490 -106.1100 283° West 378 435 40,000  Level FlightAware
04:03PM 34.4640 -106.1920 283° West 377 434 40,000  Level FlightAware
04:04PM 34.4810 -106.2830 283° West 377 434 40,000  Level FlightAware
04:05PM 34.4970 -106.3650 283° West 373 429 40,000  Level FlightAware
04:05PM 34.5110 -106.4440 282° West 372 428 40,000  Level FlightAware
04:06PM 34.5290 -106.5410 283° West 378 435 40,000  Level FlightAware
04:07PM 34.5410 -106.6080 282° West 378 435 40,000  Level FlightAware
04:07PM 34.5590 -106.7070 282° West 381 438 40,000  Level FlightAware
04:08PM 34.5760 -106.7990 283° West 384 442 40,000  Level FlightAware
04:09PM 34.5910 -106.8810 283° West 385 443 40,000  Level FlightAware
04:09PM 34.6060 -106.9670 282° West 387 445 40,000  Level FlightAware
04:10PM 34.6240 -107.0670 282° West 392 451 40,000  Level FlightAware
04:11PM 34.6400 -107.1530 283° West 390 449 40,000  Level FlightAware
04:12PM 34.6560 -107.2440 282° West 388 447 40,000  Level FlightAware
04:12PM 34.6710 -107.3300 282° West 389 448 40,000  Level FlightAware
04:13PM 34.6860 -107.4160 282° West 394 453 40,000  Level FlightAware
04:14PM 34.7020 -107.5020 283° West 392 451 40,000  Level FlightAware
04:14PM 34.7180 -107.5950 282° West 392 451 40,000  Level FlightAware
04:15PM 34.7390 -107.7220 281° West 394 453 40,000  Level FlightAware
04:16PM 34.7550 -107.8070 283° West 396 456 40,000  Level FlightAware
04:17PM 34.7740 -107.9150 282° West 399 459 40,000  Level FlightAware
04:17PM 34.7890 -108.0030 282° West 395 455 40,000  Level FlightAware
04:18PM 34.8040 -108.0900 282° West 392 451 40,000  Level FlightAware
04:19PM 34.8180 -108.1720 282° West 392 451 40,000  Level FlightAware
04:20PM 34.8350 -108.2740 282° West 391 450 40,000  Level FlightAware
04:20PM 34.8480 -108.3580 281° West 390 449 40,000  Level FlightAware
04:21PM 34.8480 -108.4570 270° West 387 445 40,000  Level FlightAware
04:22PM 34.8430 -108.5400 266° West 388 447 40,000  Level FlightAware
04:22PM 34.8360 -108.6440 265° West 389 448 40,000  Level FlightAware
04:23PM 34.8310 -108.7160 265° West 391 450 40,000  Level FlightAware
04:24PM 34.8220 -108.8330 265° West 389 448 40,000  Level FlightAware
04:25PM 34.8140 -108.9480 265° West 392 451 40,000  Level FlightAware
04:25PM 34.8080 -109.0150 264° West 392 451 40,000  Level FlightAware
04:26PM 34.8010 -109.0900 264° West 392 451 40,000  Level FlightAware
04:27PM 34.7940 -109.2020 266° West 391 450 40,000  Level FlightAware
04:27PM 34.7870 -109.2770 264° West 391 450 40,000  Level FlightAware
04:28PM 34.7790 -109.3700 264° West 391 450 40,000  Level FlightAware
04:29PM 34.7730 -109.4450 264° West 391 450 40,000  Level FlightAware
04:30PM 34.7660 -109.5190 263° West 391 450 40,000  Level FlightAware
04:30PM 34.7600 -109.5930 264° West 391 450 40,000  Level FlightAware
04:31PM 34.7530 -109.6680 264° West 391 450 40,000  Level FlightAware
04:32PM 34.7450 -109.7610 264° West 391 450 40,000  Level FlightAware
04:32PM 34.7390 -109.8350 264° West 391 450 40,000  Level FlightAware
04:33PM 34.7320 -109.9100 264° West 391 450 40,000  Level FlightAware
04:34PM 34.7260 -109.9840 264° West 391 450 40,000  Level FlightAware
04:34PM 34.7200 -110.0590 264° West 391 450 40,000  Level FlightAware
04:35PM 34.7120 -110.1520 264° West 391 450 40,000  Level FlightAware
04:36PM 34.7020 -110.4100 267° West 40,000  Level FlightAware
04:37PM 34.6940 -110.5080 264° West 410 472 40,000  Level FlightAware
04:37PM 34.6850 -110.6180 264° West 409 471 40,000  Level FlightAware
04:38PM 34.6730 -110.7470 264° West 407 468 40,000  Level FlightAware
04:39PM 34.6650 -110.8440 264° West 405 466 40,000  Level FlightAware
04:40PM 34.6570 -110.9370 264° West 405 466 40,000 -240 Level FlightAware
04:40PM 34.6500 -111.0090 263° West 411 473 39,700 -780 Descending FlightAware
04:41PM 34.6400 -111.1260 264° West 411 473 38,900 -1,020 Descending FlightAware
04:42PM 34.6320 -111.2160 264° West 394 453 38,200 -720 Descending FlightAware
04:42PM 34.6250 -111.2880 263° West 386 444 38,000 -180 Descending FlightAware
04:43PM 34.6150 -111.3880 263° West 383 441 38,000  Level FlightAware
04:44PM 34.6070 -111.4780 264° West 385 443 38,000  Level FlightAware
04:45PM 34.5970 -111.5860 264° West 389 448 38,000  Level FlightAware
04:45PM 34.5860 -111.6960 263° West 394 453 38,000  Level FlightAware
04:46PM 34.5790 -111.7640 263° West 397 457 38,000  Level FlightAware
04:47PM 34.5650 -111.9090 263° West 402 463 38,000  Level FlightAware
04:48PM 34.5560 -111.9960 263° West 405 466 38,000  Level FlightAware
04:48PM 34.5450 -112.1010 263° West 407 468 38,000  Level FlightAware
04:49PM 34.5320 -112.2250 263° West 410 472 38,000  Level FlightAware
04:50PM 34.5220 -112.3190 263° West 409 471 38,000  Level FlightAware
04:51PM 34.5130 -112.4090 263° West 408 470 38,000  Level FlightAware
04:51PM 34.5020 -112.5100 262° West 406 467 38,000  Level FlightAware
04:52PM 34.4930 -112.6000 263° West 404 465 38,000  Level FlightAware
04:53PM 34.4820 -112.7020 263° West 402 463 38,000  Level FlightAware
04:53PM 34.4720 -112.7880 262° West 396 456 38,000  Level FlightAware
04:54PM 34.4630 -112.8740 263° West 386 444 38,000  Level FlightAware
04:55PM 34.4520 -112.9750 263° West 379 436 38,000  Level FlightAware
04:55PM 34.4420 -113.0580 262° West 383 441 38,000  Level FlightAware
04:56PM 34.4310 -113.1520 262° West 388 447 38,000  Level FlightAware
04:57PM 34.4220 -113.2390 263° West 391 450 38,000  Level FlightAware
04:58PM 34.4120 -113.3270 262° West 392 451 38,000  Level FlightAware
04:58PM 34.3990 -113.4300 261° West 392 451 38,000  Level FlightAware
04:59PM 34.3870 -113.5410 263° West 393 452 38,000  Level FlightAware
05:00PM 34.3780 -113.6080 261° West 393 452 38,000  Level FlightAware
05:01PM 34.3660 -113.7170 262° West 395 455 38,000  Level FlightAware
05:01PM 34.3560 -113.8090 263° West 394 453 38,000  Level FlightAware
05:02PM 34.3470 -113.8850 262° West 394 453 38,000  Level FlightAware
05:03PM 34.3340 -114.0020 262° West 395 455 38,000  Level FlightAware
05:03PM 34.3240 -114.0870 262° West 396 456 38,000  Level FlightAware
05:04PM 34.3130 -114.1820 262° West 396 456 38,000  Level FlightAware
05:05PM 34.3030 -114.2720 262° West 398 458 38,000  Level FlightAware
05:06PM 34.2910 -114.3760 262° West 399 459 38,000  Level FlightAware
05:07PM 34.2760 -114.5000 262° West 398 458 38,000  Level FlightAware
05:07PM 34.2670 -114.5720 261° West 398 458 38,000  Level FlightAware
05:08PM 34.2550 -114.6660 261° West 398 458 38,000  Level FlightAware
05:09PM 34.2450 -114.7410 261° West 398 458 38,000  Level FlightAware
05:09PM 34.2350 -114.8150 261° West 398 458 38,000  Level FlightAware
05:10PM 34.2190 -114.9760 263° West 403 464 38,000  Level FlightAware
05:11PM 34.2070 -115.0800 262° West 406 467 38,000  Level FlightAware
05:12PM 34.1940 -115.1800 261° West 406 467 38,000  Level FlightAware
05:12PM 34.1840 -115.2670 262° West 407 468 38,000  Level FlightAware
05:13PM 34.1730 -115.3510 261° West 407 468 38,000 -540 Level FlightAware
05:14PM 34.1600 -115.4610 262° West 413 475 37,300 -960 Descending FlightAware
05:14PM 34.1490 -115.5460 261° West 412 474 36,700 -1,020 Descending FlightAware
05:15PM 34.1370 -115.6470 262° West 412 474 36,000 -1,080 Descending FlightAware
05:16PM 34.1240 -115.7460 261° West 405 466 35,200 -1,080 Descending FlightAware
05:17PM 34.1120 -115.8490 262° West 410 472 34,400 -1,080 Descending FlightAware
05:17PM 34.1000 -115.9370 261° West 413 475 33,700 -1,320 Descending FlightAware
05:18PM 34.0870 -116.0390 261° West 414 476 32,600 -1,440 Descending FlightAware
05:19PM 34.0760 -116.1310 262° West 414 476 31,700 -1,440 Descending FlightAware
05:19PM 34.0640 -116.2200 261° West 412 474 30,700 -1,740 Descending FlightAware
05:20PM 34.0510 -116.3260 262° West 412 474 29,300 -1,920 Descending FlightAware
05:21PM 34.0390 -116.4150 261° West 403 464 28,000 -2,100 Descending FlightAware
05:21PM 34.0280 -116.5040 262° West 397 457 26,500 -2,220 Descending FlightAware
05:22PM 34.0160 -116.5980 261° West 389 448 24,900 -2,220 Descending FlightAware
05:23PM 34.0050 -116.6840 261° West 378 435 23,400 -2,280 Descending FlightAware
05:24PM 33.9920 -116.7790 261° West 368 423 21,700 -2,280 Descending FlightAware
05:24PM 33.9820 -116.8590 261° West 361 415 20,200 -2,160 Descending FlightAware
05:25PM 33.9700 -116.9450 260° West 356 410 18,700 -1,860 Descending FlightAware
05:26PM 33.9600 -117.0220 261° West 352 405 17,600 -1,380 Descending FlightAware
05:26PM 33.9500 -117.0990 261° West 343 395 16,900 -1,080 Descending FlightAware
05:27PM 33.9430 -117.1840 264° West 343 395 16,100 -1,140 Descending FlightAware
05:28PM 33.9360 -117.2620 264° West 341 392 15,300 -1,140 Descending FlightAware
05:28PM 33.9300 -117.3450 265° West 338 389 14,500 -1,140 Descending FlightAware
05:29PM 33.9360 -117.3920 279° West 332 382 14,000 -1,080 Descending FlightAware
05:30PM 33.9620 -117.4640 294° West 329 379 13,300 -1,020 Descending FlightAware
05:30PM 33.9850 -117.5250 294° West 327 376 12,700 -1,620 Descending FlightAware
05:31PM 34.0080 -117.6000 290° West 328 377 11,200 -1,740 Descending FlightAware
05:32PM 34.0040 -117.6820 267° West 313 360 10,100 -1,020 Descending FlightAware
05:32PM 33.9980 -117.7470 264° West 282 325 9,800 -960 Descending FlightAware
05:33PM 33.9940 -117.7860 263° West 285 328 9,100 -1,680 Descending FlightAware
05:33PM 33.9890 -117.8340 263° West 281 323 8,300 -1,440 Descending FlightAware
05:34PM 33.9850 -117.8810 264° West 277 319 7,700 -1,080 Descending FlightAware
05:34PM 33.9830 -117.9030 264° West 268 308 7,500 -600 Descending FlightAware
05:34PM 33.9800 -117.9390 264° West 252 290 7,300 -600 Descending FlightAware
05:35PM 33.9780 -117.9610 264° West 245 282 7,100 -1,200 Descending FlightAware
05:35PM 33.9740 -118.0000 263° West 240 276 6,400 -1,440 Descending FlightAware
05:36PM 33.9720 -118.0320 266° West 238 274 5,800 -1,140 Descending FlightAware
05:36PM 33.9680 -118.0710 263° West 220 253 5,400 -600 Descending FlightAware
05:37PM 33.9650 -118.1050 264° West 194 223 5,200 -660 Descending FlightAware
05:37PM 33.9630 -118.1310 265° West 182 209 4,800 -1,320 Descending FlightAware
05:38PM 33.9600 -118.1630 264° West 186 214 4,000 -1,440 Descending FlightAware
05:38PM 33.9580 -118.1880 264° West 184 212 3,500 -1,320 Descending FlightAware
05:38PM 33.9550 -118.2180 263° West 179 206 2,800 -1,320 Descending FlightAware
05:39PM 33.9530 -118.2410 264° West 173 199 2,300 -780 Descending FlightAware
05:40PM 33.9490 -118.2760 262° West 171 197 2,000 -480 Descending FlightAware